sensor_id;sensor_type;location;lat;lon;timestamp;P1;durP1;ratioP1;P2;durP2;ratioP2
44328;SDS011;30039;51.462;6.892;2024-02-28T00:00:50;39.58;;;20.77;;
44328;SDS011;30039;51.462;6.892;2024-02-28T00:03:37;37.75;;;19.63;;
44328;SDS011;30039;51.462;6.892;2024-02-28T00:06:22;37.67;;;19.75;;
44328;SDS011;30039;51.462;6.892;2024-02-28T00:09:08;44.50;;;19.88;;
44328;SDS011;30039;51.462;6.892;2024-02-28T00:11:53;40.83;;;19.23;;
44328;SDS011;30039;51.462;6.892;2024-02-28T00:14:39;35.53;;;17.05;;
44328;SDS011;30039;51.462;6.892;2024-02-28T00:17:24;35.53;;;17.15;;
44328;SDS011;30039;51.462;6.892;2024-02-28T00:20:10;41.20;;;20.98;;
44328;SDS011;30039;51.462;6.892;2024-02-28T00:22:56;35.28;;;17.77;;
44328;SDS011;30039;51.462;6.892;2024-02-28T00:25:42;36.53;;;16.90;;
44328;SDS011;30039;51.462;6.892;2024-02-28T00:28:27;35.28;;;17.40;;
44328;SDS011;30039;51.462;6.892;2024-02-28T00:31:13;39.15;;;19.92;;
44328;SDS011;30039;51.462;6.892;2024-02-28T00:33:58;40.67;;;20.92;;
44328;SDS011;30039;51.462;6.892;2024-02-28T00:36:44;41.58;;;19.33;;
44328;SDS011;30039;51.462;6.892;2024-02-28T00:39:30;40.75;;;20.00;;
44328;SDS011;30039;51.462;6.892;2024-02-28T00:42:15;39.72;;;21.23;;
44328;SDS011;30039;51.462;6.892;2024-02-28T00:45:01;80.03;;;36.30;;
44328;SDS011;30039;51.462;6.892;2024-02-28T00:47:46;78.25;;;35.58;;
44328;SDS011;30039;51.462;6.892;2024-02-28T00:50:32;51.35;;;25.42;;
44328;SDS011;30039;51.462;6.892;2024-02-28T00:53:17;38.22;;;19.77;;
44328;SDS011;30039;51.462;6.892;2024-02-28T00:56:03;40.03;;;18.35;;
44328;SDS011;30039;51.462;6.892;2024-02-28T00:58:49;37.50;;;18.90;;
44328;SDS011;30039;51.462;6.892;2024-02-28T01:01:34;35.42;;;17.95;;
44328;SDS011;30039;51.462;6.892;2024-02-28T01:04:20;40.20;;;18.17;;
44328;SDS011;30039;51.462;6.892;2024-02-28T01:07:05;38.35;;;19.77;;
44328;SDS011;30039;51.462;6.892;2024-02-28T01:09:51;38.95;;;18.08;;
44328;SDS011;30039;51.462;6.892;2024-02-28T01:12:36;37.95;;;18.45;;
44328;SDS011;30039;51.462;6.892;2024-02-28T01:15:22;37.50;;;19.63;;
44328;SDS011;30039;51.462;6.892;2024-02-28T01:18:08;35.97;;;17.98;;
44328;SDS011;30039;51.462;6.892;2024-02-28T01:20:54;35.80;;;16.90;;
44328;SDS011;30039;51.462;6.892;2024-02-28T01:23:39;30.52;;;16.08;;
44328;SDS011;30039;51.462;6.892;2024-02-28T01:26:25;31.35;;;16.85;;
44328;SDS011;30039;51.462;6.892;2024-02-28T01:29:10;37.38;;;17.75;;
44328;SDS011;30039;51.462;6.892;2024-02-28T01:31:57;36.05;;;16.10;;
44328;SDS011;30039;51.462;6.892;2024-02-28T01:34:42;35.83;;;16.73;;
44328;SDS011;30039;51.462;6.892;2024-02-28T01:37:28;35.17;;;17.15;;
44328;SDS011;30039;51.462;6.892;2024-02-28T01:40:13;43.38;;;17.55;;
44328;SDS011;30039;51.462;6.892;2024-02-28T01:43:17;38.72;;;17.63;;
44328;SDS011;30039;51.462;6.892;2024-02-28T01:46:04;39.83;;;17.75;;
44328;SDS011;30039;51.462;6.892;2024-02-28T01:48:50;47.80;;;19.15;;
44328;SDS011;30039;51.462;6.892;2024-02-28T01:51:36;42.33;;;17.67;;
44328;SDS011;30039;51.462;6.892;2024-02-28T01:54:21;56.85;;;17.67;;
44328;SDS011;30039;51.462;6.892;2024-02-28T01:57:08;54.55;;;18.00;;
44328;SDS011;30039;51.462;6.892;2024-02-28T01:59:53;43.03;;;18.48;;
44328;SDS011;30039;51.462;6.892;2024-02-28T02:02:40;43.15;;;16.80;;
44328;SDS011;30039;51.462;6.892;2024-02-28T02:05:26;41.20;;;17.27;;
44328;SDS011;30039;51.462;6.892;2024-02-28T02:08:12;46.65;;;15.15;;
44328;SDS011;30039;51.462;6.892;2024-02-28T02:10:57;41.42;;;16.15;;
44328;SDS011;30039;51.462;6.892;2024-02-28T02:13:52;44.33;;;18.02;;
44328;SDS011;30039;51.462;6.892;2024-02-28T02:16:38;40.30;;;19.10;;
44328;SDS011;30039;51.462;6.892;2024-02-28T02:19:24;45.13;;;17.83;;
44328;SDS011;30039;51.462;6.892;2024-02-28T02:22:09;40.33;;;17.40;;
44328;SDS011;30039;51.462;6.892;2024-02-28T02:24:56;37.30;;;17.35;;
44328;SDS011;30039;51.462;6.892;2024-02-28T02:27:41;39.40;;;18.33;;
44328;SDS011;30039;51.462;6.892;2024-02-28T02:30:27;46.67;;;19.25;;
44328;SDS011;30039;51.462;6.892;2024-02-28T02:33:12;45.50;;;19.58;;
44328;SDS011;30039;51.462;6.892;2024-02-28T02:35:58;45.45;;;19.08;;
44328;SDS011;30039;51.462;6.892;2024-02-28T02:38:43;51.45;;;20.90;;
44328;SDS011;30039;51.462;6.892;2024-02-28T02:41:29;64.55;;;21.30;;
44328;SDS011;30039;51.462;6.892;2024-02-28T02:44:14;76.97;;;21.58;;
44328;SDS011;30039;51.462;6.892;2024-02-28T02:47:00;57.05;;;21.83;;
44328;SDS011;30039;51.462;6.892;2024-02-28T02:49:45;81.78;;;21.42;;
44328;SDS011;30039;51.462;6.892;2024-02-28T02:52:31;67.40;;;21.40;;
44328;SDS011;30039;51.462;6.892;2024-02-28T02:55:16;73.32;;;22.38;;
44328;SDS011;30039;51.462;6.892;2024-02-28T02:58:02;101.05;;;23.02;;
44328;SDS011;30039;51.462;6.892;2024-02-28T03:00:47;70.28;;;22.40;;
44328;SDS011;30039;51.462;6.892;2024-02-28T03:03:33;53.22;;;22.42;;
44328;SDS011;30039;51.462;6.892;2024-02-28T03:06:19;78.15;;;22.77;;
44328;SDS011;30039;51.462;6.892;2024-02-28T03:09:04;59.53;;;23.92;;
44328;SDS011;30039;51.462;6.892;2024-02-28T03:11:51;67.35;;;22.45;;
44328;SDS011;30039;51.462;6.892;2024-02-28T03:14:37;61.63;;;21.52;;
44328;SDS011;30039;51.462;6.892;2024-02-28T03:17:22;66.13;;;22.52;;
44328;SDS011;30039;51.462;6.892;2024-02-28T03:20:08;67.45;;;24.15;;
44328;SDS011;30039;51.462;6.892;2024-02-28T03:22:54;61.00;;;24.48;;
44328;SDS011;30039;51.462;6.892;2024-02-28T03:25:40;65.90;;;23.73;;
44328;SDS011;30039;51.462;6.892;2024-02-28T03:28:25;64.60;;;24.73;;
44328;SDS011;30039;51.462;6.892;2024-02-28T03:31:11;60.78;;;24.83;;
44328;SDS011;30039;51.462;6.892;2024-02-28T03:33:56;68.53;;;26.38;;
44328;SDS011;30039;51.462;6.892;2024-02-28T03:36:42;63.60;;;26.08;;
44328;SDS011;30039;51.462;6.892;2024-02-28T03:39:27;78.28;;;25.67;;
44328;SDS011;30039;51.462;6.892;2024-02-28T03:42:13;76.78;;;26.02;;
44328;SDS011;30039;51.462;6.892;2024-02-28T03:44:58;75.82;;;26.13;;
44328;SDS011;30039;51.462;6.892;2024-02-28T03:47:44;87.32;;;27.73;;
44328;SDS011;30039;51.462;6.892;2024-02-28T03:50:30;66.38;;;27.38;;
44328;SDS011;30039;51.462;6.892;2024-02-28T03:53:15;77.88;;;25.55;;
44328;SDS011;30039;51.462;6.892;2024-02-28T03:56:01;75.43;;;27.80;;
44328;SDS011;30039;51.462;6.892;2024-02-28T03:58:47;68.20;;;28.27;;
44328;SDS011;30039;51.462;6.892;2024-02-28T04:01:32;83.90;;;28.88;;
44328;SDS011;30039;51.462;6.892;2024-02-28T04:04:18;79.45;;;30.63;;
44328;SDS011;30039;51.462;6.892;2024-02-28T04:07:03;72.38;;;28.90;;
44328;SDS011;30039;51.462;6.892;2024-02-28T04:09:49;82.88;;;31.67;;
44328;SDS011;30039;51.462;6.892;2024-02-28T04:12:34;83.47;;;31.67;;
44328;SDS011;30039;51.462;6.892;2024-02-28T04:15:20;88.97;;;32.25;;
44328;SDS011;30039;51.462;6.892;2024-02-28T04:18:05;91.57;;;32.60;;
44328;SDS011;30039;51.462;6.892;2024-02-28T04:20:51;93.75;;;33.00;;
44328;SDS011;30039;51.462;6.892;2024-02-28T04:23:37;99.32;;;34.75;;
44328;SDS011;30039;51.462;6.892;2024-02-28T04:26:23;91.38;;;33.47;;
44328;SDS011;30039;51.462;6.892;2024-02-28T04:29:09;98.05;;;34.72;;
44328;SDS011;30039;51.462;6.892;2024-02-28T04:31:59;89.32;;;33.92;;
44328;SDS011;30039;51.462;6.892;2024-02-28T04:34:44;91.40;;;33.78;;
44328;SDS011;30039;51.462;6.892;2024-02-28T04:37:30;95.47;;;36.15;;
44328;SDS011;30039;51.462;6.892;2024-02-28T04:40:15;96.50;;;35.97;;
44328;SDS011;30039;51.462;6.892;2024-02-28T04:43:01;103.28;;;35.97;;
44328;SDS011;30039;51.462;6.892;2024-02-28T04:45:46;99.07;;;35.50;;
44328;SDS011;30039;51.462;6.892;2024-02-28T04:48:32;95.85;;;36.42;;
44328;SDS011;30039;51.462;6.892;2024-02-28T04:51:17;100.15;;;36.75;;
44328;SDS011;30039;51.462;6.892;2024-02-28T04:54:03;98.43;;;35.28;;
44328;SDS011;30039;51.462;6.892;2024-02-28T04:56:48;102.05;;;37.53;;
44328;SDS011;30039;51.462;6.892;2024-02-28T04:59:36;103.57;;;34.47;;
44328;SDS011;30039;51.462;6.892;2024-02-28T05:02:21;89.45;;;35.25;;
44328;SDS011;30039;51.462;6.892;2024-02-28T05:05:07;90.95;;;34.05;;
44328;SDS011;30039;51.462;6.892;2024-02-28T05:07:53;83.97;;;31.27;;
44328;SDS011;30039;51.462;6.892;2024-02-28T05:10:38;89.97;;;32.85;;
44328;SDS011;30039;51.462;6.892;2024-02-28T05:13:25;86.63;;;34.00;;
44328;SDS011;30039;51.462;6.892;2024-02-28T05:16:14;87.68;;;35.30;;
44328;SDS011;30039;51.462;6.892;2024-02-28T05:18:59;87.93;;;32.28;;
44328;SDS011;30039;51.462;6.892;2024-02-28T05:21:45;101.25;;;33.95;;
44328;SDS011;30039;51.462;6.892;2024-02-28T05:24:31;89.97;;;34.00;;
44328;SDS011;30039;51.462;6.892;2024-02-28T05:27:16;92.05;;;35.13;;
44328;SDS011;30039;51.462;6.892;2024-02-28T05:30:02;99.20;;;34.75;;
44328;SDS011;30039;51.462;6.892;2024-02-28T05:32:50;93.53;;;35.33;;
44328;SDS011;30039;51.462;6.892;2024-02-28T05:35:36;107.93;;;36.35;;
44328;SDS011;30039;51.462;6.892;2024-02-28T05:38:21;101.47;;;37.05;;
44328;SDS011;30039;51.462;6.892;2024-02-28T05:41:07;100.32;;;36.38;;
44328;SDS011;30039;51.462;6.892;2024-02-28T05:43:52;99.68;;;37.05;;
44328;SDS011;30039;51.462;6.892;2024-02-28T05:46:38;102.60;;;36.30;;
44328;SDS011;30039;51.462;6.892;2024-02-28T05:49:23;112.68;;;38.13;;
44328;SDS011;30039;51.462;6.892;2024-02-28T05:52:09;103.32;;;36.70;;
44328;SDS011;30039;51.462;6.892;2024-02-28T05:54:54;99.68;;;36.92;;
44328;SDS011;30039;51.462;6.892;2024-02-28T05:57:40;107.07;;;38.53;;
44328;SDS011;30039;51.462;6.892;2024-02-28T06:00:25;102.97;;;36.17;;
44328;SDS011;30039;51.462;6.892;2024-02-28T06:03:12;101.50;;;36.10;;
44328;SDS011;30039;51.462;6.892;2024-02-28T06:05:58;102.95;;;36.35;;
44328;SDS011;30039;51.462;6.892;2024-02-28T06:08:43;101.45;;;38.38;;
44328;SDS011;30039;51.462;6.892;2024-02-28T06:11:29;114.22;;;38.55;;
44328;SDS011;30039;51.462;6.892;2024-02-28T06:14:14;95.28;;;36.17;;
44328;SDS011;30039;51.462;6.892;2024-02-28T06:17:00;108.80;;;37.58;;
44328;SDS011;30039;51.462;6.892;2024-02-28T06:19:46;101.95;;;35.72;;
44328;SDS011;30039;51.462;6.892;2024-02-28T06:22:31;99.93;;;35.58;;
44328;SDS011;30039;51.462;6.892;2024-02-28T06:25:17;94.28;;;35.75;;
44328;SDS011;30039;51.462;6.892;2024-02-28T06:28:07;92.53;;;36.28;;
44328;SDS011;30039;51.462;6.892;2024-02-28T06:30:55;95.13;;;35.75;;
44328;SDS011;30039;51.462;6.892;2024-02-28T06:33:40;97.85;;;35.72;;
44328;SDS011;30039;51.462;6.892;2024-02-28T06:36:26;94.90;;;34.97;;
44328;SDS011;30039;51.462;6.892;2024-02-28T06:39:11;89.78;;;33.70;;
44328;SDS011;30039;51.462;6.892;2024-02-28T06:41:57;91.35;;;34.50;;
44328;SDS011;30039;51.462;6.892;2024-02-28T06:44:42;90.90;;;35.42;;
44328;SDS011;30039;51.462;6.892;2024-02-28T06:47:28;84.18;;;33.00;;
44328;SDS011;30039;51.462;6.892;2024-02-28T06:50:13;90.47;;;33.90;;
44328;SDS011;30039;51.462;6.892;2024-02-28T06:52:59;85.43;;;31.85;;
44328;SDS011;30039;51.462;6.892;2024-02-28T06:55:44;78.47;;;32.45;;
44328;SDS011;30039;51.462;6.892;2024-02-28T06:58:30;78.57;;;31.23;;
44328;SDS011;30039;51.462;6.892;2024-02-28T07:01:17;84.55;;;32.45;;
44328;SDS011;30039;51.462;6.892;2024-02-28T07:04:02;79.90;;;31.50;;
44328;SDS011;30039;51.462;6.892;2024-02-28T07:06:48;76.07;;;30.52;;
44328;SDS011;30039;51.462;6.892;2024-02-28T07:09:34;77.60;;;28.98;;
44328;SDS011;30039;51.462;6.892;2024-02-28T07:12:20;70.40;;;29.15;;
44328;SDS011;30039;51.462;6.892;2024-02-28T07:15:05;73.93;;;29.45;;
44328;SDS011;30039;51.462;6.892;2024-02-28T07:17:51;82.80;;;30.33;;
44328;SDS011;30039;51.462;6.892;2024-02-28T07:20:36;80.55;;;30.55;;
44328;SDS011;30039;51.462;6.892;2024-02-28T07:23:22;74.53;;;28.90;;
44328;SDS011;30039;51.462;6.892;2024-02-28T07:26:07;78.38;;;28.23;;
44328;SDS011;30039;51.462;6.892;2024-02-28T07:28:53;77.30;;;29.42;;
44328;SDS011;30039;51.462;6.892;2024-02-28T07:31:39;84.40;;;29.02;;
44328;SDS011;30039;51.462;6.892;2024-02-28T07:34:25;87.40;;;30.65;;
44328;SDS011;30039;51.462;6.892;2024-02-28T07:37:11;84.50;;;31.67;;
44328;SDS011;30039;51.462;6.892;2024-02-28T07:39:57;80.90;;;30.60;;
44328;SDS011;30039;51.462;6.892;2024-02-28T07:42:43;79.18;;;29.67;;
44328;SDS011;30039;51.462;6.892;2024-02-28T07:45:28;79.13;;;30.00;;
44328;SDS011;30039;51.462;6.892;2024-02-28T07:48:14;82.57;;;31.15;;
44328;SDS011;30039;51.462;6.892;2024-02-28T07:50:59;84.53;;;30.15;;
44328;SDS011;30039;51.462;6.892;2024-02-28T07:53:46;88.63;;;32.38;;
44328;SDS011;30039;51.462;6.892;2024-02-28T07:56:32;87.03;;;32.17;;
44328;SDS011;30039;51.462;6.892;2024-02-28T07:59:18;82.70;;;31.27;;
44328;SDS011;30039;51.462;6.892;2024-02-28T08:02:04;89.32;;;32.50;;
44328;SDS011;30039;51.462;6.892;2024-02-28T08:04:49;91.70;;;33.58;;
44328;SDS011;30039;51.462;6.892;2024-02-28T08:07:36;79.68;;;31.20;;
44328;SDS011;30039;51.462;6.892;2024-02-28T08:10:21;84.22;;;33.00;;
44328;SDS011;30039;51.462;6.892;2024-02-28T08:13:07;97.93;;;34.55;;
44328;SDS011;30039;51.462;6.892;2024-02-28T08:15:55;87.57;;;31.67;;
44328;SDS011;30039;51.462;6.892;2024-02-28T08:18:41;83.05;;;31.35;;
44328;SDS011;30039;51.462;6.892;2024-02-28T08:21:26;97.05;;;32.50;;
44328;SDS011;30039;51.462;6.892;2024-02-28T08:24:13;87.18;;;32.45;;
44328;SDS011;30039;51.462;6.892;2024-02-28T08:26:58;84.97;;;32.05;;
44328;SDS011;30039;51.462;6.892;2024-02-28T08:29:44;81.78;;;30.92;;
44328;SDS011;30039;51.462;6.892;2024-02-28T08:32:30;89.18;;;32.90;;
44328;SDS011;30039;51.462;6.892;2024-02-28T08:35:17;90.82;;;31.38;;
44328;SDS011;30039;51.462;6.892;2024-02-28T08:38:03;80.63;;;31.58;;
44328;SDS011;30039;51.462;6.892;2024-02-28T08:40:49;81.38;;;29.38;;
44328;SDS011;30039;51.462;6.892;2024-02-28T08:43:40;82.35;;;28.92;;
44328;SDS011;30039;51.462;6.892;2024-02-28T08:46:25;77.85;;;29.40;;
44328;SDS011;30039;51.462;6.892;2024-02-28T08:49:11;76.63;;;28.08;;
44328;SDS011;30039;51.462;6.892;2024-02-28T08:51:56;81.03;;;29.25;;
44328;SDS011;30039;51.462;6.892;2024-02-28T08:54:42;79.15;;;30.50;;
44328;SDS011;30039;51.462;6.892;2024-02-28T08:57:28;80.03;;;29.13;;
44328;SDS011;30039;51.462;6.892;2024-02-28T09:00:15;78.20;;;27.73;;
44328;SDS011;30039;51.462;6.892;2024-02-28T09:03:01;83.00;;;28.95;;
44328;SDS011;30039;51.462;6.892;2024-02-28T09:05:47;68.00;;;24.85;;
44328;SDS011;30039;51.462;6.892;2024-02-28T09:08:33;76.38;;;27.35;;
44328;SDS011;30039;51.462;6.892;2024-02-28T09:11:18;76.13;;;27.02;;
44328;SDS011;30039;51.462;6.892;2024-02-28T09:14:04;73.00;;;27.55;;
44328;SDS011;30039;51.462;6.892;2024-02-28T09:16:50;72.90;;;27.10;;
44328;SDS011;30039;51.462;6.892;2024-02-28T09:19:35;77.85;;;28.25;;
44328;SDS011;30039;51.462;6.892;2024-02-28T09:22:21;78.00;;;28.60;;
44328;SDS011;30039;51.462;6.892;2024-02-28T09:25:06;70.38;;;25.85;;
44328;SDS011;30039;51.462;6.892;2024-02-28T09:27:54;68.60;;;26.27;;
44328;SDS011;30039;51.462;6.892;2024-02-28T09:30:39;72.10;;;26.35;;
44328;SDS011;30039;51.462;6.892;2024-02-28T09:33:25;74.32;;;27.02;;
44328;SDS011;30039;51.462;6.892;2024-02-28T09:36:10;72.28;;;28.52;;
44328;SDS011;30039;51.462;6.892;2024-02-28T09:38:57;84.45;;;29.77;;
44328;SDS011;30039;51.462;6.892;2024-02-28T09:41:42;74.20;;;29.38;;
44328;SDS011;30039;51.462;6.892;2024-02-28T09:44:28;70.32;;;28.13;;
44328;SDS011;30039;51.462;6.892;2024-02-28T09:47:14;69.10;;;26.52;;
44328;SDS011;30039;51.462;6.892;2024-02-28T09:49:59;74.68;;;26.70;;
44328;SDS011;30039;51.462;6.892;2024-02-28T09:52:46;71.70;;;27.38;;
44328;SDS011;30039;51.462;6.892;2024-02-28T09:55:32;69.05;;;26.73;;
44328;SDS011;30039;51.462;6.892;2024-02-28T09:58:18;77.90;;;27.80;;
44328;SDS011;30039;51.462;6.892;2024-02-28T10:01:03;70.93;;;27.95;;
44328;SDS011;30039;51.462;6.892;2024-02-28T10:03:51;71.90;;;28.00;;
44328;SDS011;30039;51.462;6.892;2024-02-28T10:06:38;69.90;;;28.45;;
44328;SDS011;30039;51.462;6.892;2024-02-28T10:09:24;71.60;;;26.75;;
44328;SDS011;30039;51.462;6.892;2024-02-28T10:12:09;70.60;;;26.92;;
44328;SDS011;30039;51.462;6.892;2024-02-28T10:14:55;68.70;;;27.45;;
44328;SDS011;30039;51.462;6.892;2024-02-28T10:17:41;62.80;;;24.27;;
44328;SDS011;30039;51.462;6.892;2024-02-28T10:20:26;59.20;;;23.70;;
44328;SDS011;30039;51.462;6.892;2024-02-28T10:23:12;61.60;;;23.42;;
44328;SDS011;30039;51.462;6.892;2024-02-28T10:25:57;63.80;;;23.92;;
44328;SDS011;30039;51.462;6.892;2024-02-28T10:28:43;57.42;;;24.05;;
44328;SDS011;30039;51.462;6.892;2024-02-28T10:31:32;60.35;;;23.60;;
44328;SDS011;30039;51.462;6.892;2024-02-28T10:34:17;59.90;;;23.27;;
44328;SDS011;30039;51.462;6.892;2024-02-28T10:37:04;57.97;;;23.42;;
44328;SDS011;30039;51.462;6.892;2024-02-28T10:39:51;57.58;;;22.63;;
44328;SDS011;30039;51.462;6.892;2024-02-28T10:42:37;60.65;;;22.63;;
44328;SDS011;30039;51.462;6.892;2024-02-28T10:45:22;61.65;;;23.65;;
44328;SDS011;30039;51.462;6.892;2024-02-28T10:48:11;63.05;;;23.50;;
44328;SDS011;30039;51.462;6.892;2024-02-28T10:50:56;58.80;;;22.73;;
44328;SDS011;30039;51.462;6.892;2024-02-28T10:53:42;55.15;;;22.67;;
44328;SDS011;30039;51.462;6.892;2024-02-28T10:56:30;57.38;;;22.88;;
44328;SDS011;30039;51.462;6.892;2024-02-28T10:59:16;58.38;;;22.30;;
44328;SDS011;30039;51.462;6.892;2024-02-28T11:02:02;54.63;;;22.35;;
44328;SDS011;30039;51.462;6.892;2024-02-28T11:04:48;59.28;;;23.92;;
44328;SDS011;30039;51.462;6.892;2024-02-28T11:07:35;51.35;;;22.52;;
44328;SDS011;30039;51.462;6.892;2024-02-28T11:10:23;51.67;;;22.27;;
44328;SDS011;30039;51.462;6.892;2024-02-28T11:13:08;52.70;;;21.17;;
44328;SDS011;30039;51.462;6.892;2024-02-28T11:16:06;51.63;;;21.73;;
44328;SDS011;30039;51.462;6.892;2024-02-28T11:18:52;50.80;;;20.60;;
44328;SDS011;30039;51.462;6.892;2024-02-28T11:21:38;54.47;;;21.33;;
44328;SDS011;30039;51.462;6.892;2024-02-28T11:24:24;58.58;;;22.98;;
44328;SDS011;30039;51.462;6.892;2024-02-28T11:27:13;55.83;;;22.23;;
44328;SDS011;30039;51.462;6.892;2024-02-28T11:29:59;47.13;;;20.55;;
44328;SDS011;30039;51.462;6.892;2024-02-28T11:32:45;47.58;;;19.83;;
44328;SDS011;30039;51.462;6.892;2024-02-28T11:35:31;47.08;;;19.05;;
44328;SDS011;30039;51.462;6.892;2024-02-28T11:38:16;49.88;;;20.58;;
44328;SDS011;30039;51.462;6.892;2024-02-28T11:41:02;52.20;;;21.05;;
44328;SDS011;30039;51.462;6.892;2024-02-28T11:43:48;50.20;;;21.08;;
44328;SDS011;30039;51.462;6.892;2024-02-28T11:46:34;45.28;;;21.67;;
44328;SDS011;30039;51.462;6.892;2024-02-28T11:49:20;44.90;;;19.60;;
44328;SDS011;30039;51.462;6.892;2024-02-28T11:52:05;44.20;;;18.17;;
44328;SDS011;30039;51.462;6.892;2024-02-28T11:54:51;42.15;;;17.98;;
44328;SDS011;30039;51.462;6.892;2024-02-28T11:57:37;45.13;;;19.20;;
44328;SDS011;30039;51.462;6.892;2024-02-28T12:00:24;48.28;;;19.38;;
44328;SDS011;30039;51.462;6.892;2024-02-28T12:03:09;42.75;;;19.45;;
44328;SDS011;30039;51.462;6.892;2024-02-28T12:05:55;41.38;;;19.05;;
44328;SDS011;30039;51.462;6.892;2024-02-28T12:08:41;45.03;;;19.30;;
44328;SDS011;30039;51.462;6.892;2024-02-28T12:11:26;41.78;;;18.55;;
44328;SDS011;30039;51.462;6.892;2024-02-28T12:14:14;37.45;;;18.63;;
44328;SDS011;30039;51.462;6.892;2024-02-28T12:17:00;35.78;;;18.48;;
44328;SDS011;30039;51.462;6.892;2024-02-28T12:19:45;38.90;;;18.27;;
44328;SDS011;30039;51.462;6.892;2024-02-28T12:22:31;41.03;;;17.90;;
44328;SDS011;30039;51.462;6.892;2024-02-28T12:25:16;34.38;;;17.60;;
44328;SDS011;30039;51.462;6.892;2024-02-28T12:28:03;41.50;;;18.38;;
44328;SDS011;30039;51.462;6.892;2024-02-28T12:30:51;38.30;;;17.95;;
44328;SDS011;30039;51.462;6.892;2024-02-28T12:33:39;38.88;;;18.02;;
44328;SDS011;30039;51.462;6.892;2024-02-28T12:36:25;40.58;;;19.33;;
44328;SDS011;30039;51.462;6.892;2024-02-28T12:39:11;40.20;;;19.10;;
44328;SDS011;30039;51.462;6.892;2024-02-28T12:41:57;39.08;;;17.67;;
44328;SDS011;30039;51.462;6.892;2024-02-28T12:44:43;37.75;;;17.63;;
44328;SDS011;30039;51.462;6.892;2024-02-28T12:47:31;36.97;;;16.55;;
44328;SDS011;30039;51.462;6.892;2024-02-28T12:50:17;33.45;;;16.35;;
44328;SDS011;30039;51.462;6.892;2024-02-28T12:53:02;37.00;;;17.27;;
44328;SDS011;30039;51.462;6.892;2024-02-28T12:55:48;34.80;;;16.45;;
44328;SDS011;30039;51.462;6.892;2024-02-28T12:58:34;29.45;;;14.90;;
44328;SDS011;30039;51.462;6.892;2024-02-28T13:01:19;33.78;;;15.32;;
44328;SDS011;30039;51.462;6.892;2024-02-28T13:04:05;37.38;;;15.82;;
44328;SDS011;30039;51.462;6.892;2024-02-28T13:06:51;35.22;;;16.42;;
44328;SDS011;30039;51.462;6.892;2024-02-28T13:09:38;31.67;;;15.85;;
44328;SDS011;30039;51.462;6.892;2024-02-28T13:12:24;35.67;;;16.75;;
44328;SDS011;30039;51.462;6.892;2024-02-28T13:15:09;34.03;;;16.40;;
44328;SDS011;30039;51.462;6.892;2024-02-28T13:17:55;34.92;;;16.70;;
44328;SDS011;30039;51.462;6.892;2024-02-28T13:20:40;35.05;;;16.92;;
44328;SDS011;30039;51.462;6.892;2024-02-28T13:23:26;34.55;;;15.63;;
44328;SDS011;30039;51.462;6.892;2024-02-28T13:26:12;29.92;;;15.38;;
44328;SDS011;30039;51.462;6.892;2024-02-28T13:29:02;39.83;;;16.42;;
44328;SDS011;30039;51.462;6.892;2024-02-28T13:31:48;29.95;;;14.48;;
44328;SDS011;30039;51.462;6.892;2024-02-28T13:34:33;28.02;;;14.82;;
44328;SDS011;30039;51.462;6.892;2024-02-28T13:37:19;32.05;;;15.10;;
44328;SDS011;30039;51.462;6.892;2024-02-28T13:40:05;30.30;;;14.02;;
44328;SDS011;30039;51.462;6.892;2024-02-28T13:42:50;30.20;;;13.85;;
44328;SDS011;30039;51.462;6.892;2024-02-28T13:45:37;27.52;;;12.73;;
44328;SDS011;30039;51.462;6.892;2024-02-28T13:48:23;31.20;;;14.27;;
44328;SDS011;30039;51.462;6.892;2024-02-28T13:51:12;33.15;;;14.90;;
44328;SDS011;30039;51.462;6.892;2024-02-28T13:53:58;31.50;;;15.18;;
44328;SDS011;30039;51.462;6.892;2024-02-28T13:56:43;34.67;;;15.82;;
44328;SDS011;30039;51.462;6.892;2024-02-28T13:59:29;28.98;;;14.20;;
44328;SDS011;30039;51.462;6.892;2024-02-28T14:02:15;26.27;;;14.23;;
44328;SDS011;30039;51.462;6.892;2024-02-28T14:05:00;32.53;;;14.20;;
44328;SDS011;30039;51.462;6.892;2024-02-28T14:07:46;26.92;;;12.90;;
44328;SDS011;30039;51.462;6.892;2024-02-28T14:10:31;29.40;;;13.07;;
44328;SDS011;30039;51.462;6.892;2024-02-28T14:13:18;29.98;;;13.15;;
44328;SDS011;30039;51.462;6.892;2024-02-28T14:16:04;29.77;;;13.38;;
44328;SDS011;30039;51.462;6.892;2024-02-28T14:18:49;30.73;;;13.57;;
44328;SDS011;30039;51.462;6.892;2024-02-28T14:21:35;30.30;;;13.45;;
44328;SDS011;30039;51.462;6.892;2024-02-28T14:24:20;30.42;;;13.27;;
44328;SDS011;30039;51.462;6.892;2024-02-28T14:27:06;26.77;;;13.05;;
44328;SDS011;30039;51.462;6.892;2024-02-28T14:29:52;25.58;;;11.95;;
44328;SDS011;30039;51.462;6.892;2024-02-28T14:32:37;26.73;;;12.73;;
44328;SDS011;30039;51.462;6.892;2024-02-28T14:35:24;28.27;;;12.90;;
44328;SDS011;30039;51.462;6.892;2024-02-28T14:38:09;23.92;;;11.95;;
44328;SDS011;30039;51.462;6.892;2024-02-28T14:40:55;26.05;;;11.95;;
44328;SDS011;30039;51.462;6.892;2024-02-28T14:43:41;26.38;;;12.10;;
44328;SDS011;30039;51.462;6.892;2024-02-28T14:46:26;20.73;;;10.93;;
44328;SDS011;30039;51.462;6.892;2024-02-28T14:49:12;20.83;;;11.02;;
44328;SDS011;30039;51.462;6.892;2024-02-28T14:51:58;23.17;;;10.35;;
44328;SDS011;30039;51.462;6.892;2024-02-28T14:54:45;23.05;;;11.40;;
44328;SDS011;30039;51.462;6.892;2024-02-28T14:57:31;21.35;;;10.65;;
44328;SDS011;30039;51.462;6.892;2024-02-28T15:00:17;21.25;;;10.82;;
44328;SDS011;30039;51.462;6.892;2024-02-28T15:03:05;20.77;;;11.05;;
44328;SDS011;30039;51.462;6.892;2024-02-28T15:05:51;22.77;;;11.30;;
44328;SDS011;30039;51.462;6.892;2024-02-28T15:08:36;24.83;;;11.98;;
44328;SDS011;30039;51.462;6.892;2024-02-28T15:11:22;23.50;;;10.98;;
44328;SDS011;30039;51.462;6.892;2024-02-28T15:14:08;24.77;;;11.18;;
44328;SDS011;30039;51.462;6.892;2024-02-28T15:16:53;29.77;;;12.13;;
44328;SDS011;30039;51.462;6.892;2024-02-28T15:19:39;22.88;;;10.63;;
44328;SDS011;30039;51.462;6.892;2024-02-28T15:22:24;21.50;;;10.60;;
44328;SDS011;30039;51.462;6.892;2024-02-28T15:25:12;23.60;;;11.63;;
44328;SDS011;30039;51.462;6.892;2024-02-28T15:27:58;30.52;;;12.65;;
44328;SDS011;30039;51.462;6.892;2024-02-28T15:30:43;23.88;;;12.35;;
44328;SDS011;30039;51.462;6.892;2024-02-28T15:33:29;24.05;;;12.02;;
44328;SDS011;30039;51.462;6.892;2024-02-28T15:36:15;23.60;;;11.90;;
44328;SDS011;30039;51.462;6.892;2024-02-28T15:39:00;23.48;;;11.07;;
44328;SDS011;30039;51.462;6.892;2024-02-28T15:41:46;25.40;;;12.20;;
44328;SDS011;30039;51.462;6.892;2024-02-28T15:44:31;23.63;;;11.90;;
44328;SDS011;30039;51.462;6.892;2024-02-28T15:47:17;25.65;;;11.90;;
44328;SDS011;30039;51.462;6.892;2024-02-28T15:50:02;25.15;;;12.10;;
44328;SDS011;30039;51.462;6.892;2024-02-28T15:52:50;28.02;;;12.95;;
44328;SDS011;30039;51.462;6.892;2024-02-28T15:55:35;23.90;;;12.05;;
44328;SDS011;30039;51.462;6.892;2024-02-28T15:58:21;32.70;;;13.75;;
44328;SDS011;30039;51.462;6.892;2024-02-28T16:01:06;26.40;;;12.38;;
44328;SDS011;30039;51.462;6.892;2024-02-28T16:03:52;30.90;;;13.35;;
44328;SDS011;30039;51.462;6.892;2024-02-28T16:06:38;24.58;;;11.85;;
44328;SDS011;30039;51.462;6.892;2024-02-28T16:09:24;24.38;;;12.23;;